Time;durP1;ratioP1;P1;durP2;ratioP2;P2;SDS_P1;SDS_P2;PMS_P1;PMS_P2;Temp;Humidity;BMP_temperature;BMP_pressure;BME280_temperature;BME280_humidity;BME280_pressure;Samples;Min_cycle;Max_cycle;Signal;HPM_P1;HPM_P2
2021/12/19 00:01:48;;;;;;;39.50;20.40;;;;;;;3.04;92.77;98983.52;102704;1328;25448;-84
2021/12/19 00:04:53;;;;;;;36.80;20.80;;;;;;;3.08;92.97;98983.64;102797;1330;22730;-83
2021/12/19 00:10:06;;;;;;;22.30;13.80;;;;;;;3.18;93.10;98979.52;102685;1332;24346;-85
2021/12/19 00:12:33;;;;;;;13.60;8.90;;;;;;;3.23;93.24;98973.80;102932;1329;137570;-84
2021/12/19 00:15:02;;;;;;;13.70;9.10;;;;;;;3.26;93.26;98964.73;102754;1330;22602;-86
2021/12/19 00:17:29;;;;;;;11.20;7.90;;;;;;;3.31;92.96;98969.36;102453;1330;138479;-86
2021/12/19 00:19:57;;;;;;;11.10;8.00;;;;;;;3.36;92.80;98963.05;102665;1326;24230;-86
2021/12/19 00:22:24;;;;;;;10.60;8.10;;;;;;;3.42;92.72;98963.75;102615;1331;25332;-86
2021/12/19 00:24:52;;;;;;;9.00;7.20;;;;;;;3.46;92.61;98962.23;102823;1326;138005;-86
2021/12/19 00:27:19;;;;;;;11.20;7.50;;;;;;;3.49;92.32;98960.78;102894;1324;25020;-86
2021/12/19 00:29:46;;;;;;;8.10;6.20;;;;;;;3.51;92.19;98958.61;102737;1329;137523;-86
2021/12/19 00:32:13;;;;;;;8.40;6.00;;;;;;;3.54;91.84;98952.15;102782;1329;24429;-85
2021/12/19 00:34:41;;;;;;;8.90;6.10;;;;;;;3.57;91.76;98953.54;102554;1328;22655;-87
2021/12/19 00:37:08;;;;;;;10.00;6.70;;;;;;;3.59;91.63;98948.37;102179;1330;137733;-87
2021/12/19 00:39:35;;;;;;;7.30;6.30;;;;;;;3.59;91.45;98945.84;102640;1325;24519;-88
2021/12/19 00:42:07;;;;;;;9.50;7.00;;;;;;;3.59;91.45;98941.20;102521;1331;137716;-87
2021/12/19 00:44:37;;;;;;;8.20;6.20;;;;;;;3.61;91.33;98952.61;103000;1325;23399;-86
2021/12/19 00:47:07;;;;;;;8.30;5.30;;;;;;;3.63;90.99;98947.58;102786;1331;138493;-87
2021/12/19 00:49:48;;;;;;;6.80;5.20;;;;;;;3.64;90.90;98942.45;102924;1331;22687;-86
2021/12/19 00:52:18;;;;;;;8.20;5.30;;;;;;;3.65;90.53;98942.88;102803;1329;22648;-87
2021/12/19 00:54:50;;;;;;;7.60;5.60;;;;;;;3.67;90.38;98941.77;102514;1331;137796;-86
2021/12/19 00:57:17;;;;;;;7.60;5.70;;;;;;;3.69;90.30;98939.90;102909;1331;22604;-85
2021/12/19 00:59:44;;;;;;;7.40;4.80;;;;;;;3.71;90.12;98941.74;102808;1331;137518;-87
2021/12/19 01:02:11;;;;;;;7.50;5.20;;;;;;;3.73;89.89;98938.05;102921;1324;24345;-85
2021/12/19 01:04:39;;;;;;;9.30;6.50;;;;;;;3.75;89.74;98921.02;102676;1331;22732;-88
2021/12/19 01:07:06;;;;;;;8.40;5.80;;;;;;;3.76;89.82;98909.70;102766;1328;137589;-86
2021/12/19 01:09:35;;;;;;;5.80;4.70;;;;;;;3.78;89.58;98905.66;102596;1328;22579;-86
2021/12/19 01:12:03;;;;;;;7.70;5.80;;;;;;;3.80;89.48;98906.30;102868;1329;137095;-86
2021/12/19 01:14:30;;;;;;;10.10;7.10;;;;;;;3.81;89.47;98901.17;102885;1326;32127;-86
2021/12/19 01:16:57;;;;;;;8.00;6.10;;;;;;;3.80;89.58;98884.41;102985;1330;22637;-84
2021/12/19 01:19:24;;;;;;;8.10;6.10;;;;;;;3.80;89.34;98875.42;102931;1331;137322;-83
2021/12/19 01:21:52;;;;;;;8.50;6.10;;;;;;;3.80;89.26;98863.15;102975;1327;24426;-84
2021/12/19 01:24:20;;;;;;;7.80;5.80;;;;;;;3.83;89.15;98867.38;102890;1330;137593;-84
2021/12/19 01:26:47;;;;;;;9.20;6.60;;;;;;;3.84;89.23;98863.30;102621;1331;22660;-84
2021/12/19 01:29:14;;;;;;;9.00;6.10;;;;;;;3.84;89.17;98862.98;102614;1329;137610;-84
2021/12/19 01:31:42;;;;;;;8.20;6.20;;;;;;;3.84;88.93;98853.73;102624;1328;24319;-84
2021/12/19 01:34:23;;;;;;;9.50;6.50;;;;;;;3.86;89.00;98841.00;103106;1329;25374;-84
2021/12/19 01:36:50;;;;;;;8.30;5.50;;;;;;;3.87;88.91;98835.05;102770;1328;137781;-84
2021/12/19 01:39:17;;;;;;;6.30;4.90;;;;;;;3.88;88.90;98829.33;103176;1325;24220;-83
2021/12/19 01:41:56;;;;;;;11.70;5.40;;;;;;;3.88;88.86;98824.39;102776;1328;137150;-84
2021/12/19 01:44:25;;;;;;;7.50;5.90;;;;;;;3.87;88.72;98816.89;102990;1329;25308;-83
2021/12/19 01:46:53;;;;;;;5.90;4.80;;;;;;;3.88;88.86;98809.10;102807;1331;25370;-84
2021/12/19 01:49:22;;;;;;;7.30;4.00;;;;;;;3.89;88.82;98809.33;102643;1327;137146;-85
2021/12/19 01:51:49;;;;;;;6.00;4.80;;;;;;;3.90;88.81;98803.04;102776;1328;24280;-84
2021/12/19 01:54:17;;;;;;;6.30;5.10;;;;;;;3.89;88.68;98801.53;102581;1328;137295;-84
2021/12/19 01:56:44;;;;;;;8.80;4.90;;;;;;;3.90;88.81;98798.05;103587;1325;23445;-85
2021/12/19 01:59:11;;;;;;;7.20;4.70;;;;;;;3.91;88.83;98794.67;102898;1330;138417;-85
2021/12/19 02:01:47;;;;;;;8.50;5.80;;;;;;;3.93;88.79;98794.30;102733;1329;22620;-85
2021/12/19 02:04:18;;;;;;;10.00;6.80;;;;;;;3.93;88.67;98796.23;103202;1325;23406;-83
2021/12/19 02:06:47;;;;;;;9.80;7.20;;;;;;;3.92;88.86;98793.27;102763;1330;136936;-85
2021/12/19 02:09:16;;;;;;;11.10;7.20;;;;;;;3.92;88.94;98794.76;102756;1327;22671;-84
2021/12/19 02:11:46;;;;;;;10.90;7.70;;;;;;;3.91;88.63;98795.72;103140;1325;138278;-85
2021/12/19 02:14:13;;;;;;;11.80;8.40;;;;;;;3.92;88.77;98797.33;102836;1330;22596;-84
2021/12/19 02:16:41;;;;;;;10.90;7.50;;;;;;;3.90;88.73;98794.45;102953;1325;22804;-84
2021/12/19 02:19:09;;;;;;;14.10;9.40;;;;;;;3.88;88.84;98791.52;102754;1331;137193;-85
2021/12/19 02:21:39;;;;;;;14.60;9.80;;;;;;;3.86;88.79;98790.18;102934;1331;25449;-85
2021/12/19 02:24:09;;;;;;;16.40;10.20;;;;;;;3.85;88.92;98790.40;102923;1324;138167;-85
2021/12/19 02:26:39;;;;;;;17.00;11.20;;;;;;;3.85;89.18;98779.28;103053;1329;22623;-85
2021/12/19 02:29:09;;;;;;;17.10;11.10;;;;;;;3.86;89.10;98771.83;102693;1331;138681;-86
2021/12/19 02:31:36;;;;;;;15.90;10.40;;;;;;;3.84;89.31;98758.22;102790;1331;23942;-86
2021/12/19 02:34:22;;;;;;;16.70;11.90;;;;;;;3.82;89.48;98743.95;102862;1324;22837;-84
2021/12/19 02:50:19;;;;;;;12.00;7.30;;;;;;;3.75;90.08;98691.30;102916;1325;230694;-86
2021/12/19 02:52:47;;;;;;;11.00;6.50;;;;;;;3.74;90.30;98685.33;103292;1331;23968;-85
2021/12/19 02:55:16;;;;;;;10.80;7.40;;;;;;;3.74;90.43;98683.58;103090;1325;137508;-85
2021/12/19 02:57:44;;;;;;;12.30;6.90;;;;;;;3.72;90.36;98685.69;103208;1324;22719;-85
2021/12/19 03:00:16;;;;;;;10.00;6.10;;;;;;;3.72;90.43;98683.80;102804;1329;138432;-86
2021/12/19 03:02:43;;;;;;;7.20;5.20;;;;;;;3.73;90.39;98694.05;103184;1331;22601;-85
2021/12/19 03:05:10;;;;;;;8.50;6.20;;;;;;;3.73;90.27;98687.56;102658;1328;137847;-87
2021/12/19 03:07:41;;;;;;;7.60;5.50;;;;;;;3.75;90.46;98686.45;102962;1325;23297;-85
2021/12/19 03:13:18;;;;;;;9.50;6.40;;;;;;;3.74;90.42;98664.15;103051;1330;137510;-85
2021/12/19 03:18:32;;;;;;;10.90;7.20;;;;;;;3.75;90.76;98655.50;102853;1331;138885;-85
2021/12/19 03:21:00;;;;;;;11.80;6.90;;;;;;;3.77;90.62;98654.52;103082;1324;22742;-85
2021/12/19 03:23:27;;;;;;;13.80;9.20;;;;;;;3.75;90.55;98633.62;102875;1330;137444;-85
2021/12/19 03:25:54;;;;;;;14.10;9.30;;;;;;;3.72;90.45;98628.75;102999;1329;22666;-85
2021/12/19 03:28:21;;;;;;;14.00;9.20;;;;;;;3.71;90.53;98623.73;103186;1329;25241;-86
2021/12/19 03:30:48;;;;;;;12.00;7.90;;;;;;;3.71;90.62;98610.88;102746;1330;137689;-85
2021/12/19 03:33:16;;;;;;;12.80;8.90;;;;;;;3.68;90.71;98601.38;103077;1325;25387;-85
2021/12/19 03:35:43;;;;;;;13.90;9.00;;;;;;;3.65;90.74;98590.55;102558;1331;137802;-85
2021/12/19 03:38:13;;;;;;;15.00;9.00;;;;;;;3.64;90.83;98586.05;102627;1324;22764;-86
2021/12/19 03:40:52;;;;;;;15.00;8.80;;;;;;;3.63;90.82;98587.26;103174;1324;22774;-86
2021/12/19 03:43:22;;;;;;;13.10;8.90;;;;;;;3.63;90.76;98580.87;102545;1325;137369;-85
2021/12/19 03:45:49;;;;;;;12.80;7.90;;;;;;;3.60;90.82;98577.34;102869;1331;24263;-85
2021/12/19 03:48:17;;;;;;;14.50;9.60;;;;;;;3.56;90.88;98574.41;102865;1325;137667;-85
2021/12/19 03:50:49;;;;;;;15.50;9.00;;;;;;;3.55;90.98;98577.63;103099;1325;24416;-84
2021/12/19 03:53:19;;;;;;;14.00;9.60;;;;;;;3.54;91.02;98576.34;103341;1325;138132;-86
2021/12/19 03:55:47;;;;;;;12.80;7.90;;;;;;;3.55;90.98;98573.41;102995;1331;23425;-85
2021/12/19 03:58:14;;;;;;;16.70;9.40;;;;;;;3.54;91.13;98569.67;102732;1331;22625;-86
2021/12/19 04:00:43;;;;;;;15.80;9.90;;;;;;;3.54;91.11;98575.84;102767;1324;137800;-86
2021/12/19 04:03:11;;;;;;;13.90;9.30;;;;;;;3.53;91.28;98569.79;102936;1329;22596;-85
2021/12/19 04:05:38;;;;;;;16.00;9.90;;;;;;;3.54;91.30;98563.80;102951;1324;138602;-85
2021/12/19 04:08:06;;;;;;;17.40;9.30;;;;;;;3.55;91.31;98556.83;102958;1325;22610;-85
2021/12/19 04:10:33;;;;;;;14.60;9.10;;;;;;;3.55;91.36;98543.91;103113;1324;23072;-86
2021/12/19 04:13:00;;;;;;;14.80;9.60;;;;;;;3.54;91.22;98543.86;102951;1324;137427;-86
2021/12/19 04:15:28;;;;;;;16.80;10.00;;;;;;;3.53;91.56;98546.71;103017;1325;25250;-85
2021/12/19 04:17:55;;;;;;;17.30;10.20;;;;;;;3.53;91.38;98544.93;102786;1325;138164;-85
2021/12/19 04:20:22;;;;;;;13.80;8.50;;;;;;;3.53;91.33;98543.14;102709;1331;24454;-84
2021/12/19 04:22:51;;;;;;;12.60;8.00;;;;;;;3.53;91.51;98537.59;102949;1329;24436;-85
2021/12/19 04:25:19;;;;;;;13.40;7.60;;;;;;;3.52;91.57;98527.57;102792;1324;137323;-84
2021/12/19 04:27:46;;;;;;;15.20;8.70;;;;;;;3.52;91.56;98509.30;102953;1329;22609;-86
2021/12/19 04:30:21;;;;;;;14.70;8.50;;;;;;;3.51;91.63;98509.39;102797;1325;138536;-85
2021/12/19 04:32:59;;;;;;;16.70;9.70;;;;;;;3.51;91.76;98500.44;102882;1331;22616;-85
2021/12/19 04:35:31;;;;;;;10.80;7.50;;;;;;;3.53;91.91;98493.16;102796;1330;137743;-85
2021/12/19 05:16:31;;;;;;;11.40;6.80;;;;;;;3.56;92.37;98464.96;102752;1329;22601;-85
2021/12/19 05:19:05;;;;;;;13.10;8.30;;;;;;;3.55;92.25;98469.89;102724;1324;137112;-86
2021/12/19 05:21:34;;;;;;;14.10;8.80;;;;;;;3.54;92.37;98470.27;102862;1324;22636;-85
2021/12/19 05:24:19;;;;;;;13.40;8.00;;;;;;;3.53;92.40;98472.33;102563;1325;137896;-85
2021/12/19 05:26:47;;;;;;;10.80;8.20;;;;;;;3.53;92.34;98461.67;102687;1325;25509;-86
2021/12/19 05:29:16;;;;;;;11.40;7.10;;;;;;;3.54;92.46;98451.04;102431;1331;24299;-85
2021/12/19 05:31:44;;;;;;;10.60;6.90;;;;;;;3.55;92.48;98437.50;102739;1325;137179;-85
2021/12/19 05:34:12;;;;;;;13.20;7.80;;;;;;;3.53;92.39;98431.81;102961;1325;22620;-85
2021/12/19 05:47:26;;;;;;;13.20;7.50;;;;;;;3.53;92.48;98436.45;102539;1330;24309;-86
2021/12/19 05:49:52;;;;;;;12.00;7.90;;;;;;;3.53;92.61;98433.39;102555;1325;137715;-85
2021/12/19 05:52:19;;;;;;;12.20;7.70;;;;;;;3.55;92.53;98428.92;102737;1329;25269;-85
2021/12/19 05:54:46;;;;;;;14.00;7.80;;;;;;;3.55;92.45;98431.73;102772;1325;137519;-85
2021/12/19 05:57:15;;;;;;;12.50;7.20;;;;;;;3.54;92.56;98433.23;102988;1324;22743;-86
2021/12/19 05:59:42;;;;;;;11.50;7.70;;;;;;;3.55;92.56;98440.55;102586;1331;137987;-85
2021/12/19 06:02:09;;;;;;;15.40;8.80;;;;;;;3.55;92.55;98438.90;102605;1327;22726;-86
2021/12/19 06:04:37;;;;;;;12.30;8.10;;;;;;;3.57;92.51;98437.59;102806;1328;24233;-85
2021/12/19 06:07:04;;;;;;;13.00;8.00;;;;;;;3.58;92.36;98439.08;102500;1325;137917;-87
2021/12/19 06:09:31;;;;;;;11.50;7.30;;;;;;;3.59;92.49;98435.99;102472;1325;22780;-86
2021/12/19 06:11:58;;;;;;;13.30;7.20;;;;;;;3.60;92.38;98441.83;102808;1325;137531;-85
2021/12/19 06:14:31;;;;;;;13.50;8.80;;;;;;;3.59;92.34;98441.25;102609;1325;22579;-86
2021/12/19 06:16:59;;;;;;;12.40;8.20;;;;;;;3.58;92.25;98435.65;102696;1324;25333;-86
2021/12/19 06:19:27;;;;;;;13.70;8.40;;;;;;;3.58;92.10;98425.05;102703;1325;138173;-86
2021/12/19 06:21:54;;;;;;;14.40;8.50;;;;;;;3.59;92.20;98423.65;102890;1324;25252;-86
2021/12/19 06:24:21;;;;;;;11.70;7.50;;;;;;;3.59;92.20;98412.70;102748;1331;137413;-87
2021/12/19 06:26:49;;;;;;;16.50;10.60;;;;;;;3.60;92.17;98408.94;102277;1331;22612;-86
2021/12/19 06:29:15;;;;;;;13.80;8.30;;;;;;;3.61;92.13;98408.67;102623;1325;24000;-87
2021/12/19 06:31:42;;;;;;;15.50;10.20;;;;;;;3.61;91.90;98406.88;102716;1324;138639;-86
2021/12/19 06:34:09;;;;;;;15.30;8.40;;;;;;;3.62;92.04;98404.80;102836;1329;25250;-86
2021/12/19 06:36:37;;;;;;;12.10;8.20;;;;;;;3.63;91.67;98407.38;102740;1325;137328;-84
2021/12/19 06:39:04;;;;;;;15.70;9.00;;;;;;;3.62;91.66;98401.78;102793;1325;23612;-86
2021/12/19 06:41:33;;;;;;;15.40;8.80;;;;;;;3.61;91.76;98394.12;102549;1331;138124;-86
2021/12/19 06:44:00;;;;;;;13.30;8.30;;;;;;;3.62;91.58;98393.63;102655;1325;25667;-86
2021/12/19 06:46:27;;;;;;;13.00;8.50;;;;;;;3.63;91.56;98383.48;102482;1325;23445;-87
2021/12/19 06:48:54;;;;;;;12.60;7.80;;;;;;;3.66;91.55;98381.86;102831;1325;137337;-87
2021/12/19 06:51:22;;;;;;;12.70;8.50;;;;;;;3.67;91.29;98381.94;103071;1329;24382;-88
2021/12/19 06:53:49;;;;;;;14.40;8.60;;;;;;;3.66;91.26;98382.89;102517;1331;138173;-87
2021/12/19 06:56:16;;;;;;;14.90;8.40;;;;;;;3.66;91.07;98381.73;102544;1328;24330;-86
2021/12/19 06:58:43;;;;;;;12.80;9.20;;;;;;;3.68;90.83;98382.36;102764;1329;23965;-87
2021/12/19 07:01:10;;;;;;;13.20;8.00;;;;;;;3.69;90.90;98376.60;102207;1327;138039;-88
2021/12/19 07:03:37;;;;;;;14.00;8.10;;;;;;;3.71;90.76;98369.48;102640;1330;22781;-87
2021/12/19 07:06:04;;;;;;;14.20;9.10;;;;;;;3.71;90.71;98369.87;102787;1324;138290;-86
2021/12/19 07:08:31;;;;;;;14.20;8.30;;;;;;;3.71;90.63;98377.28;102795;1329;22858;-87
2021/12/19 07:10:58;;;;;;;15.00;8.80;;;;;;;3.71;90.51;98369.40;102667;1327;25727;-86
2021/12/19 07:13:26;;;;;;;11.80;8.30;;;;;;;3.72;90.54;98356.60;102815;1324;138064;-86
2021/12/19 07:15:54;;;;;;;12.80;7.50;;;;;;;3.72;90.39;98348.48;102774;1330;24425;-86
2021/12/19 07:18:22;;;;;;;12.90;8.80;;;;;;;3.72;90.26;98341.90;102588;1329;137562;-87
2021/12/19 07:20:49;;;;;;;14.00;8.70;;;;;;;3.72;90.26;98346.08;102559;1328;22731;-86
2021/12/19 07:23:20;;;;;;;13.60;8.60;;;;;;;3.72;90.19;98350.30;102830;1324;24273;-86
2021/12/19 07:25:47;;;;;;;14.50;8.50;;;;;;;3.73;90.14;98354.16;102688;1327;138942;-87
2021/12/19 07:28:14;;;;;;;11.60;7.60;;;;;;;3.73;90.17;98353.63;102306;1331;24216;-88
2021/12/19 07:30:42;;;;;;;15.90;10.20;;;;;;;3.72;90.25;98342.80;102811;1324;137267;-86
2021/12/19 07:33:11;;;;;;;15.40;10.00;;;;;;;3.73;90.18;98351.14;102469;1324;26512;-86
2021/12/19 07:35:42;;;;;;;13.10;9.10;;;;;;;3.73;90.26;98355.85;101996;1327;138632;-88
2021/12/19 07:38:11;;;;;;;15.80;8.70;;;;;;;3.74;90.17;98355.98;102853;1325;22641;-88
2021/12/19 07:40:46;;;;;;;14.00;8.10;;;;;;;3.74;90.23;98356.48;102718;1327;22741;-87
2021/12/19 07:43:14;;;;;;;18.30;10.50;;;;;;;3.72;90.29;98359.10;102315;1331;138034;-88
2021/12/19 07:45:42;;;;;;;16.00;10.40;;;;;;;3.72;90.40;98370.95;102709;1331;22596;-88
2021/12/19 07:48:10;;;;;;;15.80;10.20;;;;;;;3.73;90.46;98368.50;102422;1325;138387;-87
2021/12/19 07:50:37;;;;;;;14.90;9.50;;;;;;;3.75;90.49;98375.67;102499;1325;25314;-88
2021/12/19 07:53:05;;;;;;;19.60;10.30;;;;;;;3.76;90.42;98380.02;102584;1324;25264;-87
2021/12/19 07:55:32;;;;;;;14.70;9.60;;;;;;;3.76;90.68;98383.27;102686;1324;137653;-86
2021/12/19 07:57:59;;;;;;;15.20;10.70;;;;;;;3.74;90.63;98387.00;102975;1325;22688;-87
2021/12/19 08:00:26;;;;;;;16.50;10.50;;;;;;;3.75;90.73;98389.11;102722;1329;138433;-87
2021/12/19 08:02:54;;;;;;;18.00;11.00;;;;;;;3.75;90.80;98383.67;102827;1325;22700;-87
2021/12/19 08:05:21;;;;;;;17.10;9.60;;;;;;;3.76;90.81;98375.35;102454;1325;24451;-88
2021/12/19 08:07:55;;;;;;;17.10;11.50;;;;;;;3.78;90.73;98381.19;102500;1328;137317;-88
2021/12/19 08:12:49;;;;;;;19.40;13.00;;;;;;;3.78;90.99;98380.45;102486;1328;138229;-87
2021/12/19 08:15:16;;;;;;;14.20;9.20;;;;;;;3.78;91.06;98388.48;102684;1324;22668;-87
2021/12/19 08:17:43;;;;;;;18.40;11.50;;;;;;;3.78;91.18;98386.83;102807;1324;138345;-86
2021/12/19 08:20:11;;;;;;;16.40;11.40;;;;;;;3.80;91.25;98390.20;102782;1324;25436;-87
2021/12/19 08:22:38;;;;;;;18.70;12.20;;;;;;;3.81;91.40;98390.67;102850;1325;22617;-87
2021/12/19 08:25:06;;;;;;;17.50;11.90;;;;;;;3.82;91.37;98390.03;102654;1331;137908;-86
2021/12/19 08:27:34;;;;;;;20.20;12.70;;;;;;;3.83;91.44;98392.14;102778;1324;25384;-88
2021/12/19 08:30:04;;;;;;;14.00;8.70;;;;;;;3.85;91.61;98393.73;102468;1329;138056;-87
2021/12/19 08:32:31;;;;;;;15.10;10.00;;;;;;;3.86;91.75;98393.54;102656;1330;25282;-88
2021/12/19 08:34:58;;;;;;;15.10;10.80;;;;;;;3.86;91.76;98392.65;103005;1325;22609;-87
2021/12/19 08:37:25;;;;;;;12.10;7.40;;;;;;;3.90;91.96;98387.52;102841;1328;138329;-86
2021/12/19 08:39:52;;;;;;;10.10;7.30;;;;;;;3.95;91.97;98385.27;102732;1324;25834;-87
2021/12/19 08:42:19;;;;;;;16.40;8.10;;;;;;;4.00;91.99;98388.79;102756;1331;137956;-87
2021/12/19 08:44:46;;;;;;;11.00;7.30;;;;;;;4.05;92.14;98380.80;102866;1328;25566;-87
2021/12/19 08:47:14;;;;;;;13.30;8.20;;;;;;;4.10;92.10;98379.64;102983;1329;22716;-87
2021/12/19 08:49:42;;;;;;;7.90;5.70;;;;;;;4.15;91.86;98373.35;102756;1329;138804;-86
2021/12/19 08:52:10;;;;;;;6.80;4.30;;;;;;;4.20;91.52;98370.52;102877;1331;24293;-87
2021/12/19 08:54:38;;;;;;;7.00;4.40;;;;;;;4.24;90.95;98372.07;102808;1329;137649;-86
2021/12/19 08:57:05;;;;;;;6.40;4.30;;;;;;;4.25;90.95;98373.98;102513;1325;22738;-87
2021/12/19 08:59:32;;;;;;;6.50;4.80;;;;;;;4.27;90.93;98375.61;102541;1324;137419;-87
2021/12/19 09:02:01;;;;;;;6.50;4.40;;;;;;;4.29;90.94;98372.40;102889;1325;22670;-88
2021/12/19 09:04:30;;;;;;;10.00;5.50;;;;;;;4.32;90.81;98369.84;102831;1325;25406;-87
2021/12/19 09:06:59;;;;;;;9.80;5.90;;;;;;;4.37;90.84;98366.31;102946;1327;138145;-87
2021/12/19 09:09:26;;;;;;;8.50;5.50;;;;;;;4.40;90.70;98366.31;102890;1329;22590;-87
2021/12/19 09:11:53;;;;;;;7.10;4.90;;;;;;;4.41;90.68;98359.67;102771;1327;137510;-86
2021/12/19 09:14:21;;;;;;;5.90;4.00;;;;;;;4.43;90.50;98351.67;102989;1325;25262;-85
2021/12/19 09:16:48;;;;;;;8.90;4.40;;;;;;;4.46;90.50;98344.98;103153;1324;24368;-85
2021/12/19 09:19:15;;;;;;;6.10;4.20;;;;;;;4.49;90.33;98337.68;102770;1324;137905;-86
2021/12/19 09:21:43;;;;;;;8.90;5.10;;;;;;;4.51;90.21;98339.04;102821;1329;23274;-85
2021/12/19 09:24:10;;;;;;;8.50;5.80;;;;;;;4.51;90.44;98342.79;102959;1324;137570;-87
2021/12/19 09:26:38;;;;;;;11.90;7.00;;;;;;;4.52;90.23;98342.91;102706;1325;22597;-86
2021/12/19 09:29:06;;;;;;;9.00;5.90;;;;;;;4.52;90.09;98340.29;103017;1325;22623;-85
2021/12/19 09:31:33;;;;;;;8.40;5.60;;;;;;;4.52;90.07;98342.83;102945;1324;137932;-85
2021/12/19 09:34:00;;;;;;;10.80;5.10;;;;;;;4.54;90.11;98341.16;102749;1328;24241;-85
2021/12/19 09:36:27;;;;;;;7.20;5.60;;;;;;;4.55;90.05;98337.09;102812;1328;137387;-86
2021/12/19 09:38:54;;;;;;;9.00;6.00;;;;;;;4.55;89.89;98337.55;102990;1324;22694;-86
2021/12/19 09:41:29;;;;;;;10.00;5.70;;;;;;;4.55;89.70;98337.76;102950;1325;25653;-86
2021/12/19 09:44:03;;;;;;;10.40;6.30;;;;;;;4.55;89.86;98332.79;102922;1325;138240;-85
2021/12/19 09:46:37;;;;;;;8.60;5.00;;;;;;;4.55;89.69;98329.51;102738;1331;25613;-85
2021/12/19 09:49:07;;;;;;;10.50;5.80;;;;;;;4.56;89.61;98327.59;102849;1324;137695;-86
2021/12/19 09:51:36;;;;;;;7.80;5.20;;;;;;;4.55;89.83;98320.16;102645;1325;25496;-86
2021/12/19 09:54:05;;;;;;;9.80;6.60;;;;;;;4.55;89.71;98317.80;102655;1324;137612;-84
2021/12/19 09:56:33;;;;;;;8.70;5.50;;;;;;;4.56;89.56;98307.59;102845;1324;22475;-85
2021/12/19 09:59:06;;;;;;;9.20;5.90;;;;;;;4.56;89.52;98309.55;102690;1331;22586;-86
2021/12/19 10:01:34;;;;;;;8.30;5.00;;;;;;;4.56;89.43;98308.64;102756;1324;137747;-87
2021/12/19 10:04:01;;;;;;;7.70;5.00;;;;;;;4.57;89.44;98300.14;102760;1329;22610;-86
2021/12/19 10:06:30;;;;;;;9.00;4.80;;;;;;;4.56;89.47;98291.05;102206;1328;137274;-86
2021/12/19 10:09:18;;;;;;;8.80;6.10;;;;;;;4.55;89.22;98290.08;102767;1329;24232;-87
2021/12/19 10:12:35;;;;;;;10.00;6.10;;;;;;;4.54;89.25;98289.80;102657;1331;137932;-86
2021/12/19 10:15:08;;;;;;;8.90;5.40;;;;;;;4.54;89.35;98285.02;102816;1331;22651;-86
2021/12/19 10:17:36;;;;;;;12.70;6.50;;;;;;;4.56;89.28;98278.10;102746;1331;137770;-87
2021/12/19 10:20:08;;;;;;;6.80;4.50;;;;;;;4.59;89.24;98271.34;102686;1331;22597;-85
2021/12/19 10:22:46;;;;;;;7.70;4.80;;;;;;;4.60;88.88;98258.91;102935;1324;24332;-86
2021/12/19 10:25:21;;;;;;;8.50;5.30;;;;;;;4.61;88.73;98255.65;103069;1325;137337;-86
2021/12/19 10:27:57;;;;;;;9.70;5.10;;;;;;;4.63;88.67;98255.64;102948;1325;22631;-85
2021/12/19 10:30:28;;;;;;;8.50;5.20;;;;;;;4.66;88.59;98247.24;102307;1327;137614;-85
2021/12/19 10:32:59;;;;;;;6.90;4.80;;;;;;;4.70;88.66;98243.11;102779;1324;22652;-86
2021/12/19 10:35:34;;;;;;;7.40;4.60;;;;;;;4.71;88.61;98235.79;102294;1331;22596;-86
2021/12/19 10:38:04;;;;;;;6.70;4.60;;;;;;;4.69;88.36;98231.88;102722;1327;137506;-86
2021/12/19 10:40:31;;;;;;;7.90;4.40;;;;;;;4.67;88.18;98236.00;102836;1325;25335;-85
2021/12/19 10:43:03;;;;;;;8.10;3.40;;;;;;;4.66;88.40;98229.60;102586;1331;138075;-85
2021/12/19 10:45:33;;;;;;;5.60;3.20;;;;;;;4.67;88.28;98237.66;102684;1328;22596;-85
2021/12/19 10:48:23;;;;;;;5.00;3.10;;;;;;;4.67;88.07;98236.41;102736;1331;137430;-85
2021/12/19 10:50:58;;;;;;;5.90;3.50;;;;;;;4.64;87.96;98222.90;102169;1329;222237;-85
2021/12/19 10:53:52;;;;;;;5.10;3.60;;;;;;;4.64;88.10;98215.79;102636;1325;22614;-86
2021/12/19 10:56:20;;;;;;;6.80;3.50;;;;;;;4.66;88.19;98210.85;102691;1324;138426;-86
2021/12/19 10:59:07;;;;;;;5.10;3.20;;;;;;;4.69;88.40;98205.20;102717;1330;22608;-84
2021/12/19 11:01:37;;;;;;;6.80;4.00;;;;;;;4.70;87.81;98201.01;102574;1324;137146;-85
2021/12/19 11:04:22;;;;;;;6.90;4.60;;;;;;;4.72;87.83;98192.66;102430;1324;25448;-86
2021/12/19 11:06:52;;;;;;;7.50;4.30;;;;;;;4.75;87.64;98188.83;102599;1325;139856;-87
2021/12/19 11:09:37;;;;;;;6.00;3.50;;;;;;;4.80;87.57;98185.70;102878;1329;22698;-85
2021/12/19 11:12:10;;;;;;;3.60;2.80;;;;;;;4.81;86.91;98184.23;103390;1328;138222;-85
2021/12/19 11:14:40;;;;;;;6.20;3.30;;;;;;;4.82;86.87;98182.37;103353;1327;22600;-85
2021/12/19 11:17:16;;;;;;;5.40;3.40;;;;;;;4.83;86.92;98176.10;103352;1324;23912;-86
2021/12/19 11:19:43;;;;;;;4.60;2.80;;;;;;;4.89;86.99;98175.81;103190;1324;137808;-85
2021/12/19 11:22:12;;;;;;;4.20;2.90;;;;;;;4.93;86.46;98173.59;102455;1327;22832;-85
2021/12/19 11:24:40;;;;;;;4.80;3.00;;;;;;;4.94;86.53;98168.89;103157;1324;137366;-84
2021/12/19 11:27:08;;;;;;;4.40;3.30;;;;;;;4.98;86.41;98166.14;103118;1329;30973;-85
2021/12/19 11:29:36;;;;;;;4.80;2.70;;;;;;;5.03;86.66;98167.63;103055;1325;22646;-86
2021/12/19 11:32:06;;;;;;;5.30;2.60;;;;;;;5.07;86.04;98159.52;103317;1325;138001;-85
2021/12/19 11:34:56;;;;;;;3.30;2.20;;;;;;;5.08;85.82;98151.80;103155;1329;24231;-84
2021/12/19 11:37:51;;;;;;;5.00;2.40;;;;;;;5.08;84.80;98147.19;103002;1324;138217;-84
2021/12/19 11:40:20;;;;;;;3.40;2.20;;;;;;;5.07;84.88;98140.80;102874;1327;22651;-85
2021/12/19 11:42:48;;;;;;;3.80;2.30;;;;;;;5.08;84.66;98131.83;103194;1324;138070;-84
2021/12/19 11:48:22;;;;;;;4.20;2.20;;;;;;;5.07;84.66;98127.21;103317;1330;138169;-85
2021/12/19 11:50:52;;;;;;;4.00;2.70;;;;;;;5.05;84.36;98132.38;103737;1325;22449;-86
2021/12/19 11:53:23;;;;;;;5.20;2.40;;;;;;;5.02;84.38;98122.10;103036;1327;24388;-85
2021/12/19 11:55:58;;;;;;;4.40;2.30;;;;;;;4.99;84.24;98121.88;102228;1326;137862;-85
2021/12/19 11:58:32;;;;;;;4.60;2.50;;;;;;;4.96;84.22;98114.71;102936;1324;22623;-85
2021/12/19 12:01:06;;;;;;;12.70;5.50;;;;;;;4.93;84.27;98110.20;102644;1327;137998;-85
2021/12/19 12:03:38;;;;;;;7.20;3.20;;;;;;;4.92;84.27;98117.27;102642;1325;26595;-85
2021/12/19 12:06:19;;;;;;;5.00;2.50;;;;;;;4.88;84.05;98117.54;102495;1330;138192;-85
2021/12/19 12:09:08;;;;;;;5.20;3.20;;;;;;;4.86;84.09;98110.80;102668;1331;22554;-84
2021/12/19 12:11:59;;;;;;;4.30;2.50;;;;;;;4.84;84.09;98103.98;102810;1330;23226;-85
2021/12/19 12:14:39;;;;;;;4.80;2.60;;;;;;;4.84;84.32;98102.82;102535;1326;140035;-84
2021/12/19 12:17:13;;;;;;;6.50;2.80;;;;;;;4.83;84.71;98105.03;102625;1325;25243;-86
2021/12/19 12:19:49;;;;;;;5.00;2.50;;;;;;;4.84;85.03;98100.25;102509;1325;137297;-85
2021/12/19 12:22:29;;;;;;;3.20;2.20;;;;;;;4.85;84.96;98097.92;102583;1325;22616;-85
2021/12/19 12:25:02;;;;;;;4.30;2.00;;;;;;;4.81;84.47;98099.36;102660;1330;137701;-85
2021/12/19 12:27:43;;;;;;;5.90;2.10;;;;;;;4.76;84.46;98098.27;103056;1329;24436;-85
2021/12/19 12:30:14;;;;;;;3.00;1.70;;;;;;;4.72;84.48;98091.87;102945;1329;23117;-85
2021/12/19 12:32:41;;;;;;;5.50;2.60;;;;;;;4.67;84.81;98087.81;102384;1331;137020;-86
2021/12/19 12:35:11;;;;;;;5.30;2.00;;;;;;;4.66;85.12;98087.30;102599;1328;25408;-85
2021/12/19 12:37:40;;;;;;;3.10;2.30;;;;;;;4.62;84.60;98081.17;102523;1331;137372;-85
2021/12/19 12:40:20;;;;;;;3.70;2.50;;;;;;;4.58;84.78;98076.77;102710;1331;23434;-84
2021/12/19 12:43:08;;;;;;;3.90;1.90;;;;;;;4.55;84.79;98072.44;102767;1325;137734;-85
2021/12/19 12:46:14;;;;;;;3.60;2.20;;;;;;;4.54;84.84;98069.02;102826;1324;24320;-85
2021/12/19 12:48:51;;;;;;;3.60;1.90;;;;;;;4.53;84.66;98067.86;102772;1325;137417;-84
2021/12/19 12:51:28;;;;;;;5.30;2.40;;;;;;;4.52;84.49;98064.96;102508;1327;25455;-86
2021/12/19 12:54:03;;;;;;;4.30;2.30;;;;;;;4.53;84.30;98058.33;102778;1331;22660;-84
2021/12/19 12:56:39;;;;;;;4.20;1.70;;;;;;;4.55;83.48;98057.36;102609;1329;137795;-84